createdAt,value
2022-08-21T00:02:23.499Z,18.70
2022-08-21T00:51:50.245Z,18.20
2022-08-21T00:54:19.393Z,18.20
2022-08-21T00:56:50.962Z,18.30
2022-08-21T00:59:20.368Z,18.20
2022-08-21T01:09:12.826Z,18.10
2022-08-21T01:11:40.891Z,18.10
2022-08-21T01:26:34.001Z,18.00
2022-08-21T01:31:30.021Z,18.10
2022-08-21T01:56:12.508Z,17.80
2022-08-21T01:58:41.602Z,17.70
2022-08-21T02:06:06.249Z,17.80
2022-08-21T02:20:56.057Z,17.70
2022-08-21T02:33:18.129Z,17.60
2022-08-21T02:35:47.670Z,17.60
2022-08-21T02:38:17.819Z,17.60
2022-08-21T02:40:48.299Z,17.60
2022-08-21T02:45:47.416Z,17.50
2022-08-21T02:48:17.795Z,17.50
2022-08-21T02:50:48.660Z,17.50
2022-08-21T02:53:17.691Z,17.40
2022-08-21T02:55:46.705Z,17.30
2022-08-21T03:05:38.704Z,17.30
2022-08-21T03:08:11.663Z,17.30
2022-08-21T03:10:41.515Z,17.30
2022-08-21T03:13:09.413Z,17.20
2022-08-21T03:15:37.121Z,17.20
2022-08-21T03:18:06.524Z,17.50
2022-08-21T03:20:34.491Z,17.10
2022-08-21T03:23:04.435Z,17.20
2022-08-21T03:25:41.102Z,16.50
2022-08-21T03:28:14.829Z,17.10
2022-08-21T03:30:43.622Z,18.80
2022-08-21T03:33:13.266Z,17.10
2022-08-21T03:35:43.985Z,17.00
2022-08-21T03:45:38.885Z,17.00
2022-08-21T03:50:40.975Z,17.00
2022-08-21T03:53:17.629Z,17.00
2022-08-21T03:55:50.353Z,17.00
2022-08-21T03:58:19.493Z,16.80
2022-08-21T04:00:48.632Z,16.90
2022-08-21T04:10:39.786Z,20.30
2022-08-21T04:13:08.747Z,16.90
2022-08-21T04:18:04.627Z,16.90
2022-08-21T04:35:25.437Z,17.00
2022-08-21T04:40:21.562Z,17.00
2022-08-21T04:42:54.950Z,16.80
2022-08-21T04:45:35.284Z,16.90
2022-08-21T04:48:07.832Z,16.90
2022-08-21T04:51:03.433Z,17.00
2022-08-21T04:53:53.141Z,17.10
2022-08-21T04:56:29.251Z,17.10
2022-08-21T04:58:59.470Z,17.10
2022-08-21T05:01:29.863Z,17.00
2022-08-21T05:04:00.535Z,17.20
2022-08-21T05:06:31.387Z,17.20
2022-08-21T05:09:01.975Z,17.20
2022-08-21T05:11:31.440Z,17.20
2022-08-21T05:19:09.172Z,17.30
2022-08-21T05:21:38.716Z,17.30
2022-08-21T05:29:13.578Z,17.00
2022-08-21T05:31:42.967Z,17.30
2022-08-21T06:06:27.006Z,17.90
2022-08-21T06:23:46.553Z,18.00
2022-08-21T06:26:15.628Z,18.10
2022-08-21T06:28:43.771Z,18.10
2022-08-21T06:31:13.399Z,18.10
2022-08-21T06:46:08.811Z,18.30
2022-08-21T07:08:28.192Z,18.00
2022-08-21T07:10:57.961Z,18.60
2022-08-21T07:20:48.714Z,18.60
2022-08-21T07:23:31.451Z,18.70
2022-08-21T07:30:57.917Z,18.80
2022-08-21T07:40:50.185Z,18.90
2022-08-21T07:43:18.122Z,18.80
2022-08-21T07:50:41.639Z,18.90
2022-08-21T08:05:30.932Z,19.10
2022-08-21T08:10:26.058Z,19.40
2022-08-21T08:15:26.195Z,19.20
2022-08-21T08:25:19.645Z,19.30
2022-08-21T08:30:16.742Z,19.40
2022-08-21T08:32:44.483Z,19.30
2022-08-21T08:40:39.040Z,19.50
2022-08-21T08:45:51.875Z,19.50
2022-08-21T08:48:53.622Z,19.50
2022-08-21T08:51:42.962Z,19.50
2022-08-21T08:54:16.664Z,19.50
2022-08-21T08:59:28.314Z,19.50
2022-08-21T09:04:27.123Z,19.70
2022-08-21T09:07:11.835Z,19.70
2022-08-21T09:12:33.409Z,20.20
2022-08-21T09:15:08.038Z,20.00
2022-08-21T09:17:47.254Z,19.90
2022-08-21T09:20:25.880Z,20.00
2022-08-21T09:22:58.858Z,19.70
2022-08-21T09:25:33.893Z,20.40
2022-08-21T09:30:32.403Z,20.10
2022-08-21T09:38:04.093Z,20.50
2022-08-21T09:40:41.369Z,19.80
2022-08-21T09:43:20.177Z,20.10
2022-08-21T09:45:49.377Z,19.80
2022-08-21T09:48:26.270Z,20.10
2022-08-21T09:51:06.315Z,20.20
2022-08-21T09:56:35.838Z,20.20
2022-08-21T10:01:30.253Z,20.30
2022-08-21T10:04:28.434Z,20.70
2022-08-21T10:14:51.694Z,20.40
2022-08-21T10:17:47.671Z,20.40
2022-08-21T10:20:44.468Z,20.40
2022-08-21T10:23:26.516Z,20.50
2022-08-21T10:26:14.277Z,20.80
2022-08-21T10:29:04.652Z,20.60
2022-08-21T10:31:49.410Z,20.60
2022-08-21T10:34:21.609Z,20.60
2022-08-21T10:39:48.605Z,20.80
2022-08-21T10:42:39.462Z,20.60
2022-08-21T10:45:32.274Z,20.80
2022-08-21T10:48:06.143Z,20.80
2022-08-21T10:53:16.102Z,20.70
2022-08-21T10:55:53.676Z,20.80
2022-08-21T10:58:30.749Z,20.80
2022-08-21T11:01:12.838Z,20.90
2022-08-21T11:03:55.177Z,20.90
2022-08-21T11:06:28.845Z,20.80
2022-08-21T11:09:02.275Z,20.70
2022-08-21T11:11:38.321Z,20.80
2022-08-21T11:14:21.688Z,20.60
2022-08-21T11:17:01.599Z,21.00
2022-08-21T11:20:09.744Z,20.90
2022-08-21T11:22:51.365Z,20.90
2022-08-21T11:25:36.779Z,21.30
2022-08-21T11:28:14.270Z,20.60
2022-08-21T11:30:44.413Z,20.80
2022-08-21T11:33:29.836Z,20.90
2022-08-21T11:36:12.569Z,20.80
2022-08-21T11:38:51.409Z,20.90
2022-08-21T11:41:29.536Z,20.90
2022-08-21T11:44:15.103Z,21.30
2022-08-21T11:47:03.906Z,21.00
2022-08-21T11:49:43.063Z,21.00
2022-08-21T11:55:20.348Z,21.40
2022-08-21T12:00:27.481Z,21.10
2022-08-21T12:02:57.543Z,21.00
2022-08-21T12:05:40.730Z,21.30
2022-08-21T12:08:12.986Z,21.10
2022-08-21T12:11:00.284Z,21.10
2022-08-21T12:13:39.893Z,21.10
2022-08-21T12:16:16.675Z,21.20
2022-08-21T12:18:44.845Z,21.10
2022-08-21T12:24:06.638Z,21.20
2022-08-21T12:26:47.781Z,21.20
2022-08-21T12:29:26.586Z,21.20
2022-08-21T12:32:11.783Z,21.00
2022-08-21T12:34:53.310Z,21.20
2022-08-21T12:37:31.330Z,21.10
2022-08-21T12:40:01.929Z,21.40
2022-08-21T12:42:44.034Z,21.20
2022-08-21T12:45:40.011Z,21.30
2022-08-21T12:50:58.409Z,21.30
2022-08-21T12:53:46.559Z,21.30
2022-08-21T12:56:19.458Z,21.10
2022-08-21T12:58:49.329Z,22.00
2022-08-21T13:01:25.413Z,21.30
2022-08-21T13:04:04.310Z,21.40
2022-08-21T13:06:38.893Z,21.40
2022-08-21T13:09:09.747Z,21.40
2022-08-21T13:11:37.384Z,21.40
2022-08-21T13:14:20.128Z,21.40
2022-08-21T13:16:48.805Z,21.40
2022-08-21T13:19:23.907Z,21.30
2022-08-21T13:21:53.439Z,21.30
2022-08-21T13:24:43.568Z,21.30
2022-08-21T13:27:20.128Z,21.30
2022-08-21T13:29:54.147Z,21.30
2022-08-21T13:32:26.863Z,21.50
2022-08-21T13:37:23.882Z,21.50
2022-08-21T13:39:53.285Z,21.40
2022-08-21T13:42:21.194Z,21.30
2022-08-21T13:44:49.210Z,21.50
2022-08-21T13:47:17.545Z,21.40
2022-08-21T13:49:47.942Z,21.90
2022-08-21T13:52:23.395Z,21.60
2022-08-21T13:55:01.921Z,22.00
2022-08-21T13:57:34.459Z,21.90
2022-08-21T14:00:31.486Z,22.20
2022-08-21T14:03:06.944Z,21.80
2022-08-21T14:05:38.094Z,22.10
2022-08-21T14:08:21.529Z,22.20
2022-08-21T14:10:59.223Z,22.00
2022-08-21T14:13:38.660Z,21.80
2022-08-21T14:16:27.975Z,21.90
2022-08-21T14:19:03.791Z,21.80
2022-08-21T14:24:12.122Z,21.70
2022-08-21T14:26:53.226Z,21.70
2022-08-21T14:29:24.976Z,21.60
2022-08-21T14:31:56.467Z,22.00
2022-08-21T14:34:32.888Z,21.90
2022-08-21T14:41:58.996Z,21.60
2022-08-21T14:46:56.568Z,21.30
2022-08-21T14:49:30.527Z,21.70
2022-08-21T14:51:58.855Z,21.80
2022-08-21T14:54:30.980Z,22.00
2022-08-21T14:57:02.911Z,22.00
2022-08-21T14:59:30.464Z,21.70
2022-08-21T15:01:57.400Z,22.00
2022-08-21T15:11:47.048Z,22.10
2022-08-21T15:14:21.258Z,21.00
2022-08-21T15:16:49.601Z,22.00
2022-08-21T15:29:08.199Z,22.30
2022-08-21T15:31:36.985Z,21.60
2022-08-21T15:34:04.484Z,21.80
2022-08-21T15:36:31.588Z,22.30
2022-08-21T15:43:54.467Z,21.80
2022-08-21T15:46:22.683Z,22.10
2022-08-21T15:53:47.611Z,21.90
2022-08-21T15:56:23.919Z,22.20
2022-08-21T15:58:53.305Z,21.90
2022-08-21T16:01:22.634Z,22.00
2022-08-21T16:03:53.098Z,21.60
2022-08-21T16:09:07.864Z,21.80
2022-08-21T16:14:02.222Z,22.40
2022-08-21T16:16:31.302Z,22.10
2022-08-21T16:23:54.115Z,21.60
2022-08-21T16:28:54.770Z,21.90
2022-08-21T16:33:57.192Z,21.60
2022-08-21T16:38:58.555Z,21.90
2022-08-21T16:41:30.879Z,21.90
2022-08-21T16:48:53.579Z,22.30
2022-08-21T16:53:47.948Z,21.60
2022-08-21T16:56:16.889Z,21.80
2022-08-21T16:58:47.835Z,21.90
2022-08-21T17:01:19.799Z,22.10
2022-08-21T17:03:51.111Z,22.10
2022-08-21T17:06:18.948Z,22.00
2022-08-21T17:11:41.717Z,22.00
2022-08-21T17:14:17.178Z,23.10
2022-08-21T17:16:47.185Z,21.70
2022-08-21T17:19:14.495Z,22.10
2022-08-21T17:26:37.873Z,21.90
2022-08-21T17:29:09.871Z,21.60
2022-08-21T17:31:38.953Z,21.80
2022-08-21T17:36:35.886Z,21.80
2022-08-21T17:39:04.717Z,21.60
2022-08-21T17:41:31.811Z,22.10
2022-08-21T17:44:03.288Z,21.90
2022-08-21T17:48:58.160Z,22.30
2022-08-21T17:56:20.902Z,21.50
2022-08-21T17:58:51.215Z,21.80
2022-08-21T18:01:19.617Z,21.80
2022-08-21T18:06:17.738Z,21.70
2022-08-21T18:11:23.081Z,21.50
2022-08-21T18:13:53.964Z,20.50
2022-08-21T18:16:22.314Z,21.60
2022-08-21T18:23:46.418Z,21.30
2022-08-21T18:26:18.017Z,21.10
2022-08-21T18:31:13.131Z,21.20
2022-08-21T18:33:52.901Z,21.40
2022-08-21T18:36:29.380Z,21.80
2022-08-21T18:41:45.411Z,21.60
2022-08-21T18:44:14.730Z,21.40
2022-08-21T18:46:46.746Z,21.30
2022-08-21T18:51:45.142Z,20.70
2022-08-21T18:54:13.209Z,20.80
2022-08-21T18:59:09.654Z,21.50
2022-08-21T19:01:37.171Z,21.20
2022-08-21T19:04:06.725Z,21.00
2022-08-21T19:06:36.670Z,21.10
2022-08-21T19:09:08.639Z,21.00
2022-08-21T19:11:37.643Z,20.60
2022-08-21T19:14:15.240Z,20.90
2022-08-21T19:19:15.959Z,20.90
2022-08-21T19:29:14.470Z,20.90
2022-08-21T19:31:43.798Z,20.60
2022-08-21T19:34:25.467Z,20.50
2022-08-21T19:41:51.928Z,20.70
2022-08-21T19:44:22.936Z,20.30
2022-08-21T19:46:54.982Z,19.90
2022-08-21T19:49:34.453Z,20.30
2022-08-21T19:52:11.855Z,20.00
2022-08-21T20:04:53.999Z,19.90
2022-08-21T20:10:06.495Z,20.00
2022-08-21T20:12:34.732Z,19.90
2022-08-21T20:27:25.195Z,19.80
2022-08-21T20:34:51.976Z,19.70
2022-08-21T20:47:36.486Z,19.50
2022-08-21T20:50:13.043Z,19.50
2022-08-21T20:52:42.193Z,19.50
2022-08-21T20:55:17.876Z,19.50
2022-08-21T21:00:22.633Z,19.40
2022-08-21T21:03:06.371Z,19.70
2022-08-21T21:05:40.816Z,19.30
2022-08-21T21:08:48.884Z,19.60
2022-08-21T21:11:22.900Z,19.20
2022-08-21T21:14:16.456Z,19.50
2022-08-21T21:16:51.150Z,19.20
2022-08-21T21:22:18.508Z,19.50
2022-08-21T21:24:58.902Z,19.00
2022-08-21T21:27:37.416Z,19.10
2022-08-21T21:30:24.410Z,19.10
2022-08-21T21:35:33.177Z,19.10
2022-08-21T21:38:35.421Z,19.10
2022-08-21T21:41:25.031Z,19.10
2022-08-21T21:47:00.842Z,19.40
2022-08-21T21:49:50.671Z,19.00
2022-08-21T21:57:53.726Z,19.20
2022-08-21T22:00:26.594Z,18.90
2022-08-21T22:05:40.275Z,18.90
2022-08-21T22:08:48.838Z,18.80
2022-08-21T22:11:55.811Z,15.30
2022-08-21T22:14:29.648Z,18.80
2022-08-21T22:16:59.846Z,18.70
2022-08-21T22:19:30.713Z,18.80
2022-08-21T22:22:00.429Z,18.70
2022-08-21T22:24:36.518Z,18.70
2022-08-21T22:27:22.021Z,18.60
2022-08-21T22:29:54.668Z,18.60
2022-08-21T22:35:09.607Z,18.50
2022-08-21T22:37:49.328Z,18.50
2022-08-21T22:40:35.186Z,18.50
2022-08-21T22:43:09.899Z,18.70
2022-08-21T22:45:53.886Z,18.50
2022-08-21T22:48:23.239Z,18.50
2022-08-21T22:51:32.365Z,18.30
2022-08-21T22:54:00.783Z,18.50
2022-08-21T22:56:38.637Z,18.40
2022-08-21T22:59:28.006Z,18.40
2022-08-21T23:02:04.812Z,18.30
2022-08-21T23:07:03.208Z,18.30
2022-08-21T23:12:21.319Z,18.30
2022-08-21T23:17:50.074Z,18.20
2022-08-21T23:20:43.255Z,18.10
2022-08-21T23:23:26.982Z,18.00
2022-08-21T23:31:27.890Z,17.90
2022-08-21T23:40:02.947Z,17.80
2022-08-21T23:50:41.403Z,17.80
2022-08-21T23:53:18.721Z,17.80
2022-08-21T23:59:03.700Z,17.80
